createdAt,value
2022-10-07T00:01:41.991Z,8.70
2022-10-07T00:04:10.944Z,8.70
2022-10-07T00:06:39.583Z,8.70
2022-10-07T00:09:08.286Z,8.70
2022-10-07T00:11:37.294Z,8.60
2022-10-07T00:14:07.918Z,8.70
2022-10-07T00:16:41.288Z,8.70
2022-10-07T00:19:13.009Z,8.60
2022-10-07T00:21:42.025Z,8.60
2022-10-07T00:24:11.622Z,8.60
2022-10-07T00:26:40.164Z,8.60
2022-10-07T00:29:09.753Z,8.60
2022-10-07T00:31:41.722Z,8.50
2022-10-07T00:34:12.829Z,8.50
2022-10-07T00:36:43.484Z,8.50
2022-10-07T00:39:15.366Z,8.40
2022-10-07T00:41:46.079Z,8.40
2022-10-07T00:44:40.049Z,8.40
2022-10-07T00:47:14.900Z,8.40
2022-10-07T00:49:46.820Z,8.40
2022-10-07T00:52:17.530Z,8.40
2022-10-07T00:54:46.258Z,8.40
2022-10-07T00:57:15.181Z,8.30
2022-10-07T00:59:43.753Z,8.30
2022-10-07T01:02:13.780Z,8.30
2022-10-07T01:04:43.915Z,8.30
2022-10-07T01:07:21.792Z,8.30
2022-10-07T01:09:53.185Z,8.30
2022-10-07T01:12:30.021Z,8.20
2022-10-07T01:15:06.950Z,8.20
2022-10-07T01:17:47.530Z,8.10
2022-10-07T01:20:36.052Z,8.10
2022-10-07T01:23:19.649Z,8.10
2022-10-07T01:26:05.222Z,8.10
2022-10-07T01:28:40.795Z,8.10
2022-10-07T01:31:13.427Z,8.10
2022-10-07T01:33:44.496Z,8.10
2022-10-07T01:36:17.408Z,8.00
2022-10-07T01:38:53.227Z,8.00
2022-10-07T01:41:23.352Z,8.10
2022-10-07T01:43:55.405Z,8.10
2022-10-07T01:46:26.966Z,8.00
2022-10-07T01:48:55.727Z,8.00
2022-10-07T01:51:29.476Z,8.00
2022-10-07T01:54:02.967Z,8.00
2022-10-07T01:56:46.837Z,7.90
2022-10-07T01:59:40.831Z,7.90
2022-10-07T02:02:20.427Z,7.90
2022-10-07T02:04:59.313Z,7.90
2022-10-07T02:07:37.967Z,7.90
2022-10-07T02:10:17.288Z,7.90
2022-10-07T02:12:52.262Z,7.90
2022-10-07T02:15:26.161Z,7.90
2022-10-07T02:17:58.214Z,7.90
2022-10-07T02:20:32.017Z,7.80
2022-10-07T02:23:03.266Z,7.90
2022-10-07T02:25:37.079Z,7.80
2022-10-07T02:28:08.066Z,7.80
2022-10-07T02:30:39.255Z,7.70
2022-10-07T02:33:09.919Z,7.70
2022-10-07T02:35:43.477Z,7.70
2022-10-07T02:38:14.561Z,7.60
2022-10-07T02:40:50.606Z,7.60
2022-10-07T02:43:29.081Z,7.60
2022-10-07T02:46:03.363Z,7.60
2022-10-07T02:48:39.241Z,7.60
2022-10-07T02:51:12.069Z,7.60
2022-10-07T02:53:42.181Z,7.60
2022-10-07T02:56:11.146Z,7.50
2022-10-07T02:58:44.929Z,7.50
2022-10-07T03:01:21.306Z,7.50
2022-10-07T03:03:50.036Z,7.50
2022-10-07T03:06:20.433Z,7.50
2022-10-07T03:08:49.230Z,7.40
2022-10-07T03:11:17.932Z,7.50
2022-10-07T03:13:46.503Z,7.40
2022-10-07T03:16:16.640Z,7.40
2022-10-07T03:18:45.552Z,7.30
2022-10-07T03:21:14.208Z,7.30
2022-10-07T03:23:43.362Z,7.30
2022-10-07T03:26:11.919Z,7.30
2022-10-07T03:28:40.636Z,7.30
2022-10-07T03:31:11.831Z,7.30
2022-10-07T03:33:42.091Z,7.40
2022-10-07T03:36:11.418Z,7.40
2022-10-07T03:38:39.976Z,7.40
2022-10-07T03:41:08.555Z,7.40
2022-10-07T03:43:37.740Z,7.40
2022-10-07T03:46:07.108Z,7.40
2022-10-07T03:48:35.860Z,7.40
2022-10-07T03:51:06.207Z,7.30
2022-10-07T03:53:34.866Z,7.30
2022-10-07T03:56:03.531Z,7.30
2022-10-07T03:58:32.237Z,7.20
2022-10-07T04:01:09.338Z,7.20
2022-10-07T04:03:37.903Z,7.20
2022-10-07T04:06:08.368Z,7.30
2022-10-07T04:08:37.315Z,7.30
2022-10-07T04:11:06.204Z,7.40
2022-10-07T04:13:35.210Z,7.70
2022-10-07T04:16:07.457Z,7.80
2022-10-07T04:18:36.255Z,7.90
2022-10-07T04:21:05.239Z,8.10
2022-10-07T04:23:35.465Z,8.20
2022-10-07T04:26:09.274Z,8.30
2022-10-07T04:28:38.183Z,8.40
2022-10-07T04:31:08.819Z,8.50
2022-10-07T04:33:44.422Z,8.60
2022-10-07T04:36:13.671Z,8.60
2022-10-07T04:38:45.284Z,8.60
2022-10-07T04:41:13.837Z,8.70
2022-10-07T04:43:42.637Z,8.80
2022-10-07T04:46:13.639Z,8.80
2022-10-07T04:48:45.767Z,8.80
2022-10-07T04:51:15.995Z,8.70
2022-10-07T04:53:45.985Z,8.80
2022-10-07T04:56:14.535Z,8.80
2022-10-07T04:58:43.237Z,8.80
2022-10-07T05:01:12.852Z,8.80
2022-10-07T05:03:44.072Z,8.80
2022-10-07T05:06:13.180Z,8.80
2022-10-07T05:08:45.340Z,8.80
2022-10-07T05:11:13.925Z,8.80
2022-10-07T05:13:42.816Z,8.70
2022-10-07T05:16:12.243Z,8.70
2022-10-07T05:18:41.075Z,8.70
2022-10-07T05:21:10.702Z,8.80
2022-10-07T05:23:39.656Z,8.80
2022-10-07T05:26:11.190Z,8.80
2022-10-07T05:28:40.906Z,8.80
2022-10-07T05:31:12.064Z,8.80
2022-10-07T05:33:41.527Z,8.70
2022-10-07T05:36:11.896Z,8.60
2022-10-07T05:38:43.451Z,8.60
2022-10-07T05:41:14.098Z,8.70
2022-10-07T05:43:43.351Z,8.70
2022-10-07T05:46:13.552Z,8.70
2022-10-07T05:48:46.382Z,8.60
2022-10-07T05:51:15.686Z,8.60
2022-10-07T05:53:44.875Z,8.60
2022-10-07T05:56:20.216Z,8.80
2022-10-07T05:58:52.673Z,8.80
2022-10-07T06:01:23.977Z,8.80
2022-10-07T06:03:54.470Z,8.80
2022-10-07T06:06:23.430Z,8.80
2022-10-07T06:08:53.070Z,8.80
2022-10-07T06:11:40.437Z,8.80
2022-10-07T06:14:09.079Z,8.90
2022-10-07T06:16:37.730Z,9.00
2022-10-07T06:19:22.534Z,9.10
2022-10-07T06:21:52.038Z,9.20
2022-10-07T06:24:21.421Z,9.20
2022-10-07T06:26:51.338Z,9.20
2022-10-07T06:29:19.999Z,9.30
2022-10-07T06:31:48.710Z,9.40
2022-10-07T06:34:18.183Z,9.50
2022-10-07T06:36:46.700Z,9.60
2022-10-07T06:39:18.005Z,9.80
2022-10-07T06:41:53.035Z,9.90
2022-10-07T06:44:21.728Z,10.00
2022-10-07T06:46:50.443Z,10.00
2022-10-07T06:49:19.059Z,10.20
2022-10-07T06:51:50.133Z,10.30
2022-10-07T06:54:18.744Z,10.50
2022-10-07T06:56:49.048Z,10.50
2022-10-07T06:59:23.818Z,10.60
2022-10-07T07:01:52.557Z,10.60
2022-10-07T07:04:21.264Z,10.70
2022-10-07T07:06:49.923Z,10.70
2022-10-07T07:09:18.687Z,10.90
2022-10-07T07:11:47.355Z,11.00
2022-10-07T07:14:16.018Z,11.00
2022-10-07T07:16:46.414Z,11.20
2022-10-07T07:19:16.345Z,11.40
2022-10-07T07:21:48.956Z,11.50
2022-10-07T07:24:20.945Z,11.60
2022-10-07T07:26:49.733Z,11.70
2022-10-07T07:29:18.570Z,11.80
2022-10-07T07:31:51.074Z,11.90
2022-10-07T07:34:19.942Z,12.00
2022-10-07T07:36:51.340Z,12.00
2022-10-07T07:39:20.790Z,12.20
2022-10-07T07:41:50.975Z,12.30
2022-10-07T07:44:20.606Z,12.40
2022-10-07T07:46:52.106Z,12.50
2022-10-07T07:49:22.148Z,12.60
2022-10-07T07:51:51.249Z,12.60
2022-10-07T07:54:19.778Z,12.70
2022-10-07T07:56:48.387Z,12.80
2022-10-07T07:59:17.208Z,12.90
2022-10-07T08:01:46.380Z,12.90
2022-10-07T08:04:16.685Z,13.10
2022-10-07T08:06:45.577Z,13.20
2022-10-07T08:09:14.256Z,13.30
2022-10-07T08:11:47.217Z,13.40
2022-10-07T08:14:17.410Z,13.50
2022-10-07T08:16:48.681Z,13.60
2022-10-07T08:19:19.456Z,13.60
2022-10-07T08:21:48.109Z,13.50
2022-10-07T08:24:17.376Z,13.30
2022-10-07T08:26:47.436Z,13.20
2022-10-07T08:29:17.209Z,13.10
2022-10-07T08:31:45.826Z,13.10
2022-10-07T08:34:14.532Z,13.10
2022-10-07T08:36:47.445Z,13.20
2022-10-07T08:39:18.837Z,13.20
2022-10-07T08:41:57.419Z,13.20
2022-10-07T08:44:29.986Z,13.20
2022-10-07T08:47:06.375Z,13.10
2022-10-07T08:49:41.302Z,13.10
2022-10-07T08:52:35.776Z,13.10
2022-10-07T08:55:05.357Z,13.20
2022-10-07T08:57:51.632Z,13.20
2022-10-07T09:00:22.764Z,13.30
2022-10-07T09:03:07.646Z,13.30
2022-10-07T09:05:41.762Z,13.30
2022-10-07T09:08:21.142Z,13.50
2022-10-07T09:10:53.526Z,13.60
2022-10-07T09:13:26.259Z,13.70
2022-10-07T09:16:02.362Z,13.90
2022-10-07T09:18:36.566Z,13.90
2022-10-07T09:21:08.112Z,14.10
2022-10-07T09:23:39.713Z,14.30
2022-10-07T09:26:12.267Z,14.60
2022-10-07T09:28:41.739Z,15.00
2022-10-07T09:31:16.225Z,15.30
2022-10-07T09:33:46.929Z,15.50
2022-10-07T09:36:18.314Z,15.70
2022-10-07T09:38:52.476Z,15.60
2022-10-07T09:41:27.846Z,15.60
2022-10-07T09:44:02.949Z,15.60
2022-10-07T09:46:44.441Z,15.80
2022-10-07T09:49:31.667Z,15.90
2022-10-07T09:52:02.307Z,16.10
2022-10-07T09:54:34.749Z,16.40
2022-10-07T09:57:06.030Z,16.60
2022-10-07T09:59:36.036Z,16.70
2022-10-07T10:02:21.387Z,16.60
2022-10-07T10:04:53.057Z,16.50
2022-10-07T10:07:26.797Z,16.30
2022-10-07T10:10:03.496Z,16.30
2022-10-07T10:12:39.436Z,16.20
2022-10-07T10:15:26.734Z,16.20
2022-10-07T10:17:57.133Z,16.20
2022-10-07T10:20:39.656Z,16.50
2022-10-07T10:23:28.236Z,16.50
2022-10-07T10:26:32.748Z,16.50
2022-10-07T10:29:15.332Z,16.40
2022-10-07T10:32:21.381Z,16.20
2022-10-07T10:35:00.530Z,16.30
2022-10-07T10:37:48.035Z,16.40
2022-10-07T10:40:23.963Z,16.60
2022-10-07T10:43:00.237Z,16.70
2022-10-07T10:45:36.895Z,16.80
2022-10-07T10:48:22.112Z,16.90
2022-10-07T10:50:56.443Z,17.10
2022-10-07T10:53:36.254Z,17.20
2022-10-07T10:56:17.355Z,17.40
2022-10-07T10:58:59.273Z,17.50
2022-10-07T11:01:36.625Z,17.70
2022-10-07T11:04:33.822Z,17.60
2022-10-07T11:07:07.164Z,17.70
2022-10-07T11:09:42.291Z,17.80
2022-10-07T11:12:23.039Z,18.00
2022-10-07T11:14:57.982Z,18.00
2022-10-07T11:17:31.809Z,17.90
2022-10-07T11:20:13.906Z,18.00
2022-10-07T11:22:48.133Z,18.10
2022-10-07T11:25:26.595Z,18.10
2022-10-07T11:28:01.017Z,18.20
2022-10-07T11:30:40.858Z,18.30
2022-10-07T11:33:13.088Z,18.40
2022-10-07T11:35:50.050Z,18.50
2022-10-07T11:38:21.657Z,18.60
2022-10-07T11:40:52.499Z,18.60
2022-10-07T11:43:27.607Z,18.70
2022-10-07T11:46:01.989Z,18.60
2022-10-07T11:48:39.010Z,18.70
2022-10-07T11:51:10.602Z,18.80
2022-10-07T11:53:41.320Z,18.80
2022-10-07T11:56:20.471Z,19.00
2022-10-07T11:58:58.951Z,19.30
2022-10-07T12:01:53.624Z,19.40
2022-10-07T12:04:36.709Z,19.20
2022-10-07T12:07:41.012Z,19.10
2022-10-07T12:10:23.478Z,19.20
2022-10-07T12:12:54.986Z,19.30
2022-10-07T12:15:30.008Z,19.30
2022-10-07T12:18:28.518Z,19.30
2022-10-07T12:21:05.705Z,19.10
2022-10-07T12:23:45.608Z,19.20
2022-10-07T12:26:50.379Z,19.30
2022-10-07T12:29:34.853Z,19.80
2022-10-07T12:32:03.954Z,20.10
2022-10-07T12:34:43.449Z,20.30
2022-10-07T12:37:37.864Z,20.00
2022-10-07T12:40:19.319Z,20.00
2022-10-07T12:42:54.790Z,19.90
2022-10-07T12:45:27.046Z,19.70
2022-10-07T12:47:59.392Z,19.60
2022-10-07T12:50:33.559Z,19.70
2022-10-07T12:53:04.067Z,20.00
2022-10-07T12:55:37.058Z,20.10
2022-10-07T12:58:48.322Z,20.30
2022-10-07T13:01:30.586Z,20.30
2022-10-07T13:04:22.255Z,20.50
2022-10-07T13:07:33.804Z,20.70
2022-10-07T13:10:36.958Z,20.90
2022-10-07T13:13:08.709Z,21.00
2022-10-07T13:15:45.075Z,21.10
2022-10-07T13:18:20.380Z,21.00
2022-10-07T13:21:02.946Z,20.80
2022-10-07T13:23:34.176Z,20.90
2022-10-07T13:26:03.781Z,20.90
2022-10-07T13:28:39.241Z,21.00
2022-10-07T13:31:17.892Z,20.80
2022-10-07T13:33:46.528Z,20.40
2022-10-07T13:36:18.478Z,20.10
2022-10-07T13:38:50.415Z,20.20
2022-10-07T13:41:27.424Z,20.10
2022-10-07T13:44:00.455Z,20.20
2022-10-07T13:46:31.314Z,20.40
2022-10-07T13:49:00.597Z,20.40
2022-10-07T13:51:33.062Z,20.50
2022-10-07T13:54:05.544Z,20.90
2022-10-07T13:56:39.247Z,21.00
2022-10-07T13:59:13.098Z,21.00
2022-10-07T14:01:42.091Z,20.80
2022-10-07T14:04:19.947Z,20.60
2022-10-07T14:06:56.172Z,20.60
2022-10-07T14:09:36.731Z,20.40
2022-10-07T14:12:08.441Z,20.20
2022-10-07T14:14:40.161Z,20.00
2022-10-07T14:17:11.737Z,19.90
2022-10-07T14:19:41.036Z,20.10
2022-10-07T14:22:19.984Z,20.20
2022-10-07T14:25:01.637Z,20.10
2022-10-07T14:27:55.273Z,19.90
2022-10-07T14:30:49.894Z,19.80
2022-10-07T14:33:45.598Z,19.80
2022-10-07T14:36:17.025Z,19.70
2022-10-07T14:38:47.367Z,19.60
2022-10-07T14:41:19.591Z,19.80
2022-10-07T14:43:51.832Z,19.70
2022-10-07T14:46:22.126Z,19.50
2022-10-07T14:48:51.924Z,19.40
2022-10-07T14:51:23.409Z,19.20
2022-10-07T14:53:55.352Z,19.10
2022-10-07T14:56:29.297Z,19.20
2022-10-07T14:58:58.035Z,19.10
2022-10-07T15:01:28.458Z,19.00
2022-10-07T15:03:57.528Z,18.80
2022-10-07T15:06:26.708Z,18.70
2022-10-07T15:08:55.304Z,18.70
2022-10-07T15:11:29.232Z,18.60
2022-10-07T15:13:58.034Z,18.50
2022-10-07T15:16:28.973Z,18.40
2022-10-07T15:18:57.660Z,18.30
2022-10-07T15:21:26.380Z,18.30
2022-10-07T15:23:56.135Z,18.20
2022-10-07T15:26:25.831Z,18.00
2022-10-07T15:28:57.815Z,18.00
2022-10-07T15:31:29.187Z,18.00
2022-10-07T15:33:58.714Z,18.00
2022-10-07T15:36:29.271Z,18.00
2022-10-07T15:39:02.282Z,17.90
2022-10-07T15:41:36.232Z,17.90
2022-10-07T15:44:08.519Z,17.80
2022-10-07T15:46:37.346Z,17.80
2022-10-07T15:49:07.587Z,17.70
2022-10-07T15:51:36.697Z,17.70
2022-10-07T15:54:06.639Z,17.60
2022-10-07T15:56:35.788Z,17.60
2022-10-07T15:59:05.851Z,17.60
2022-10-07T16:01:34.578Z,17.50
2022-10-07T16:04:05.406Z,17.50
2022-10-07T16:06:35.575Z,17.50
2022-10-07T16:09:05.232Z,17.30
2022-10-07T16:11:35.363Z,17.30
2022-10-07T16:14:06.005Z,17.20
2022-10-07T16:16:34.613Z,17.10
2022-10-07T16:19:03.825Z,16.90
2022-10-07T16:21:34.026Z,16.90
2022-10-07T16:24:05.046Z,16.70
2022-10-07T16:26:35.840Z,16.60
2022-10-07T16:29:25.431Z,16.50
2022-10-07T16:31:58.832Z,16.40
2022-10-07T16:34:29.047Z,16.40
2022-10-07T16:36:58.866Z,16.50
2022-10-07T16:39:27.461Z,16.40
2022-10-07T16:41:56.823Z,16.40
2022-10-07T16:44:26.938Z,16.30
2022-10-07T16:46:57.152Z,16.20
2022-10-07T16:49:27.666Z,16.10
2022-10-07T16:51:56.918Z,16.00
2022-10-07T16:54:25.585Z,15.80
2022-10-07T16:56:54.354Z,15.70
2022-10-07T16:59:25.106Z,15.70
2022-10-07T17:01:57.309Z,15.60
2022-10-07T17:04:26.390Z,15.50
2022-10-07T17:06:55.187Z,15.40
2022-10-07T17:09:25.319Z,15.20
2022-10-07T17:11:53.930Z,15.10
2022-10-07T17:14:23.786Z,15.10
2022-10-07T17:16:58.035Z,15.00
2022-10-07T17:19:28.386Z,14.90
2022-10-07T17:21:58.600Z,14.90
2022-10-07T17:24:27.215Z,14.80
2022-10-07T17:26:56.469Z,14.80
2022-10-07T17:29:26.315Z,14.90
2022-10-07T17:31:56.488Z,14.90
2022-10-07T17:34:25.166Z,14.90
2022-10-07T17:36:54.169Z,14.80
2022-10-07T17:39:23.060Z,14.70
2022-10-07T17:41:51.742Z,14.70
2022-10-07T17:44:21.780Z,14.60
2022-10-07T17:46:50.494Z,14.50
2022-10-07T17:49:20.861Z,14.50
2022-10-07T17:51:49.569Z,14.40
2022-10-07T17:54:18.588Z,14.40
2022-10-07T17:56:47.757Z,14.30
2022-10-07T17:59:16.830Z,14.20
2022-10-07T18:01:45.695Z,14.20
2022-10-07T18:04:20.007Z,14.10
2022-10-07T18:06:54.028Z,14.10
2022-10-07T18:09:24.239Z,14.00
2022-10-07T18:12:10.529Z,14.00
2022-10-07T18:14:56.648Z,13.90
2022-10-07T18:17:25.288Z,13.90
2022-10-07T18:19:53.821Z,13.90
2022-10-07T18:22:24.358Z,13.80
2022-10-07T18:24:57.067Z,13.80
2022-10-07T18:27:27.204Z,13.80
2022-10-07T18:29:56.439Z,13.70
2022-10-07T18:32:25.624Z,13.80
2022-10-07T18:34:54.364Z,13.60
2022-10-07T18:37:24.671Z,13.60
2022-10-07T18:39:53.322Z,13.60
2022-10-07T18:42:22.070Z,13.50
2022-10-07T18:44:52.314Z,13.50
2022-10-07T18:47:21.239Z,13.50
2022-10-07T18:49:51.710Z,13.40
2022-10-07T18:52:20.285Z,13.30
2022-10-07T18:54:50.388Z,13.20
2022-10-07T18:57:19.919Z,13.20
2022-10-07T18:59:48.526Z,13.10
2022-10-07T19:02:17.347Z,13.10
2022-10-07T19:04:45.944Z,13.10
2022-10-07T19:07:14.566Z,13.00
2022-10-07T19:09:43.161Z,13.00
2022-10-07T19:12:27.058Z,13.00
2022-10-07T19:14:55.738Z,13.00
2022-10-07T19:17:24.554Z,13.00
2022-10-07T19:19:53.196Z,13.00
2022-10-07T19:22:22.187Z,13.10
2022-10-07T19:25:08.309Z,13.10
2022-10-07T19:27:38.262Z,13.10
2022-10-07T19:30:08.246Z,13.20
2022-10-07T19:32:36.808Z,13.20
2022-10-07T19:35:06.256Z,13.20
2022-10-07T19:37:34.981Z,13.20
2022-10-07T19:40:03.616Z,13.20
2022-10-07T19:42:32.531Z,13.20
2022-10-07T19:45:03.095Z,13.20
2022-10-07T19:47:35.294Z,13.20
2022-10-07T19:50:04.042Z,13.30
2022-10-07T19:52:32.730Z,13.30
2022-10-07T19:55:04.183Z,13.30
2022-10-07T19:57:32.846Z,13.30
2022-10-07T20:00:02.995Z,13.30
2022-10-07T20:02:31.700Z,13.20
2022-10-07T20:05:00.567Z,13.20
2022-10-07T20:07:29.139Z,13.10
2022-10-07T20:09:58.883Z,13.10
2022-10-07T20:12:27.501Z,13.00
2022-10-07T20:14:56.102Z,13.00
2022-10-07T20:17:26.124Z,13.00
2022-10-07T20:19:56.724Z,13.00
2022-10-07T20:22:25.342Z,13.00
2022-10-07T20:24:53.944Z,12.90
2022-10-07T20:27:22.744Z,12.90
2022-10-07T20:30:02.469Z,12.90
2022-10-07T20:32:34.048Z,12.80
2022-10-07T20:35:05.314Z,12.80
2022-10-07T20:37:34.058Z,12.80
2022-10-07T20:40:40.664Z,12.80
2022-10-07T20:43:09.442Z,12.70
2022-10-07T20:45:56.425Z,12.80
2022-10-07T20:48:28.938Z,12.80
2022-10-07T20:50:57.578Z,12.80
2022-10-07T20:53:26.384Z,12.70
2022-10-07T20:55:55.020Z,12.70
2022-10-07T20:58:23.768Z,12.70
2022-10-07T21:00:52.365Z,12.70
2022-10-07T21:03:22.849Z,12.70
2022-10-07T21:05:59.191Z,12.60
2022-10-07T21:08:27.832Z,12.60
2022-10-07T21:11:02.116Z,12.50
2022-10-07T21:13:31.877Z,12.50
2022-10-07T21:16:03.978Z,12.50
2022-10-07T21:18:33.374Z,12.50
2022-10-07T21:21:03.350Z,12.40
2022-10-07T21:23:32.070Z,12.40
2022-10-07T21:26:02.563Z,12.40
2022-10-07T21:28:33.840Z,12.40
2022-10-07T21:31:03.366Z,12.40
2022-10-07T21:33:33.297Z,12.40
2022-10-07T21:36:05.105Z,12.40
2022-10-07T21:38:34.064Z,12.40
2022-10-07T21:41:12.107Z,12.30
2022-10-07T21:43:41.366Z,12.30
2022-10-07T21:46:10.500Z,12.30
2022-10-07T21:48:39.353Z,12.30
2022-10-07T21:51:10.015Z,12.30
2022-10-07T21:53:38.695Z,12.30
2022-10-07T21:56:09.568Z,12.30
2022-10-07T21:58:38.458Z,12.20
2022-10-07T22:01:09.264Z,12.10
2022-10-07T22:03:37.855Z,12.10
2022-10-07T22:06:10.038Z,12.10
2022-10-07T22:08:38.557Z,12.10
2022-10-07T22:11:09.973Z,12.10
2022-10-07T22:13:40.275Z,12.10
2022-10-07T22:16:14.654Z,12.10
2022-10-07T22:18:46.468Z,12.00
2022-10-07T22:21:19.469Z,12.00
2022-10-07T22:23:50.906Z,12.00
2022-10-07T22:26:20.797Z,12.00
2022-10-07T22:28:49.714Z,12.00
2022-10-07T22:31:18.678Z,12.00
2022-10-07T22:33:52.952Z,11.90
2022-10-07T22:36:22.459Z,11.90
2022-10-07T22:38:51.703Z,11.90
2022-10-07T22:41:20.824Z,11.90
2022-10-07T22:43:50.006Z,11.90
2022-10-07T22:46:21.173Z,11.90
2022-10-07T22:48:51.706Z,11.90
2022-10-07T22:51:21.934Z,11.90
2022-10-07T22:53:54.678Z,11.90
2022-10-07T22:56:24.909Z,11.90
2022-10-07T22:58:58.019Z,12.00
2022-10-07T23:01:28.581Z,11.90
2022-10-07T23:03:58.799Z,12.00
2022-10-07T23:06:28.923Z,12.00
2022-10-07T23:08:57.461Z,12.10
2022-10-07T23:11:27.764Z,12.20
2022-10-07T23:13:56.498Z,12.20
2022-10-07T23:16:29.432Z,12.30
2022-10-07T23:19:00.227Z,12.30
2022-10-07T23:21:34.938Z,12.40
2022-10-07T23:24:07.649Z,12.40
2022-10-07T23:26:37.654Z,12.40
2022-10-07T23:29:07.609Z,12.40
2022-10-07T23:31:36.738Z,12.40
2022-10-07T23:34:06.626Z,12.40
2022-10-07T23:36:36.865Z,12.50
2022-10-07T23:39:05.520Z,12.50
2022-10-07T23:41:34.395Z,12.50
2022-10-07T23:44:04.148Z,12.50
2022-10-07T23:46:35.043Z,12.50
2022-10-07T23:49:04.312Z,12.60
2022-10-07T23:51:33.543Z,12.60
2022-10-07T23:54:04.965Z,12.60
2022-10-07T23:56:34.090Z,12.60
2022-10-07T23:59:05.573Z,12.70
